Time;durP1;ratioP1;P1;durP2;ratioP2;P2;SDS_P1;SDS_P2;PMS_P1;PMS_P2;Temp;Humidity;BMP_temperature;BMP_pressure;BME280_temperature;BME280_humidity;BME280_pressure;Samples;Min_cycle;Max_cycle;Signal;HPM_P1;HPM_P2
2021/09/16 00:01:54;;;;;;;25.93;18.37;;;;;;;18.14;100.00;101542.97;5030102;28;20193;-77
2021/09/16 00:04:20;;;;;;;22.40;17.83;;;;;;;18.10;100.00;101553.00;5027114;28;20216;-74
2021/09/16 00:06:45;;;;;;;26.13;18.17;;;;;;;18.04;100.00;101545.56;5011043;28;20606;-76
2021/09/16 00:09:11;;;;;;;27.23;19.27;;;;;;;18.00;100.00;101552.97;5021179;28;20223;-70
2021/09/16 00:11:36;;;;;;;26.87;17.57;;;;;;;18.01;100.00;101551.97;5030832;28;20250;-76
2021/09/16 00:14:02;;;;;;;21.70;17.30;;;;;;;18.01;100.00;101553.81;5031482;28;20938;-72
2021/09/16 00:16:28;;;;;;;27.13;19.47;;;;;;;18.02;100.00;101558.16;5027751;28;20266;-73
2021/09/16 00:18:53;;;;;;;23.73;18.00;;;;;;;18.01;100.00;101554.66;5029708;28;20174;-77
2021/09/16 00:21:19;;;;;;;24.70;16.70;;;;;;;17.98;100.00;101554.88;5032266;28;20184;-77
2021/09/16 00:23:44;;;;;;;22.03;15.60;;;;;;;17.97;100.00;101549.69;5033389;28;20227;-75
2021/09/16 00:26:10;;;;;;;20.20;15.70;;;;;;;17.97;100.00;101549.69;5050631;28;20549;-76
2021/09/16 00:28:35;;;;;;;19.90;14.70;;;;;;;17.96;100.00;101540.03;5038244;28;20296;-71
2021/09/16 00:31:01;;;;;;;24.33;13.77;;;;;;;17.94;100.00;101540.19;5030363;28;20208;-77
2021/09/16 00:33:27;;;;;;;22.10;14.70;;;;;;;17.92;100.00;101536.81;5025729;28;20228;-70
2021/09/16 00:35:52;;;;;;;24.17;15.57;;;;;;;17.89;100.00;101542.38;5015983;28;20612;-75
2021/09/16 00:38:18;;;;;;;25.30;16.00;;;;;;;17.88;100.00;101540.69;5026065;28;20192;-71
2021/09/16 00:40:43;;;;;;;22.00;16.20;;;;;;;17.85;100.00;101543.63;5033529;28;20189;-73
2021/09/16 00:43:09;;;;;;;22.53;14.70;;;;;;;17.89;100.00;101547.69;5037279;28;20205;-72
2021/09/16 00:45:34;;;;;;;19.80;14.50;;;;;;;17.86;100.00;101547.97;5053982;28;20203;-70
2021/09/16 00:48:00;;;;;;;17.50;14.40;;;;;;;17.83;100.00;101542.88;5041133;28;20595;-70
2021/09/16 00:50:26;;;;;;;21.27;14.70;;;;;;;17.83;100.00;101556.19;5029129;28;20692;-73
2021/09/16 00:52:52;;;;;;;28.13;17.07;;;;;;;17.88;100.00;101545.16;5053721;28;20557;-74
2021/09/16 00:55:20;;;;;;;23.13;18.47;;;;;;;17.86;100.00;101555.09;5052963;28;20662;-78
2021/09/16 00:57:54;;;;;;;28.10;18.90;;;;;;;17.80;100.00;101544.97;5054186;28;20398;-73
2021/09/16 01:00:19;;;;;;;20.37;15.30;;;;;;;17.83;100.00;101542.88;5016815;28;20409;-75
2021/09/16 01:02:45;;;;;;;23.53;17.47;;;;;;;17.83;100.00;101544.72;5042313;28;20816;-74
2021/09/16 01:05:11;;;;;;;21.23;14.57;;;;;;;17.79;100.00;101533.50;5034978;28;20597;-76
2021/09/16 01:07:38;;;;;;;19.23;13.17;;;;;;;17.76;100.00;101528.47;5045410;28;20165;-77
2021/09/16 01:10:04;;;;;;;16.90;12.00;;;;;;;17.74;100.00;101527.72;5046489;28;20462;-70
2021/09/16 01:12:30;;;;;;;20.30;14.67;;;;;;;17.72;100.00;101527.00;5053698;28;20395;-74
2021/09/16 01:14:55;;;;;;;19.97;14.00;;;;;;;17.70;100.00;101535.13;5053686;28;20472;-76
2021/09/16 01:17:21;;;;;;;28.00;18.90;;;;;;;17.80;100.00;101526.38;5038158;28;20224;-72
2021/09/16 01:19:47;;;;;;;30.13;20.03;;;;;;;17.80;100.00;101527.22;5033248;28;20243;-74
2021/09/16 01:22:18;;;;;;;52.63;32.83;;;;;;;17.80;100.00;101529.88;5019764;28;20241;-73
2021/09/16 01:24:44;;;;;;;56.90;39.70;;;;;;;17.79;100.00;101522.03;5047349;28;20157;-73
2021/09/16 01:27:10;;;;;;;79.67;47.90;;;;;;;17.77;100.00;101523.97;5034950;28;20546;-76
2021/09/16 01:29:35;;;;;;;73.00;45.70;;;;;;;17.75;100.00;101524.09;5030427;28;20559;-75
2021/09/16 01:32:03;;;;;;;73.33;46.70;;;;;;;17.69;100.00;101533.41;5028099;28;20240;-71
2021/09/16 01:34:29;;;;;;;83.50;50.80;;;;;;;17.65;100.00;101529.31;5024701;28;20605;-73
2021/09/16 01:36:54;;;;;;;76.87;47.10;;;;;;;17.60;100.00;101539.47;5033182;28;20412;-72
2021/09/16 01:39:20;;;;;;;75.83;49.40;;;;;;;17.58;100.00;101529.94;5031455;28;20157;-74
2021/09/16 01:41:46;;;;;;;66.90;43.47;;;;;;;17.56;100.00;101534.56;5026699;28;20174;-73
2021/09/16 01:44:12;;;;;;;59.60;41.00;;;;;;;17.56;100.00;101534.56;5037974;28;20170;-72
2021/09/16 01:46:38;;;;;;;58.33;35.27;;;;;;;17.48;100.00;101519.25;5041926;28;20466;-74
2021/09/16 01:49:04;;;;;;;55.77;33.10;;;;;;;17.44;100.00;101529.28;5050858;28;20519;-75
2021/09/16 01:51:31;;;;;;;55.80;32.20;;;;;;;17.39;100.00;101526.19;5053082;28;20228;-72
2021/09/16 01:53:57;;;;;;;61.13;34.80;;;;;;;17.40;100.00;101529.69;5052551;28;20404;-72
2021/09/16 01:56:23;;;;;;;62.90;38.37;;;;;;;17.37;100.00;101530.75;5024075;28;20421;-73
2021/09/16 01:58:48;;;;;;;66.07;38.83;;;;;;;17.29;100.00;101519.09;5021926;28;20408;-72
2021/09/16 02:01:14;;;;;;;78.33;44.40;;;;;;;17.37;100.00;101524.59;5035912;28;20170;-76
2021/09/16 02:03:39;;;;;;;72.47;39.80;;;;;;;17.41;100.00;101540.19;5049625;28;20197;-75
2021/09/16 02:06:05;;;;;;;67.30;43.37;;;;;;;17.39;100.00;101539.47;5030732;28;20176;-75
2021/09/16 02:08:30;;;;;;;67.20;41.73;;;;;;;17.40;100.00;101537.66;5032700;28;20196;-73
2021/09/16 02:10:56;;;;;;;71.00;39.03;;;;;;;17.43;100.00;101534.72;5040438;28;20165;-72
2021/09/16 02:13:21;;;;;;;73.77;43.37;;;;;;;17.43;100.00;101530.25;5039732;28;20189;-74
2021/09/16 02:15:47;;;;;;;84.33;49.17;;;;;;;17.44;100.00;101523.97;5013253;28;20181;-73
2021/09/16 02:18:12;;;;;;;76.70;44.97;;;;;;;17.50;100.00;101521.78;5030525;28;20744;-77
2021/09/16 02:20:38;;;;;;;83.37;49.90;;;;;;;17.50;100.00;101527.94;5031372;28;20224;-76
2021/09/16 02:23:05;;;;;;;82.87;51.17;;;;;;;17.43;100.00;101530.25;5029406;28;20192;-75
2021/09/16 02:25:30;;;;;;;75.03;48.53;;;;;;;17.40;100.00;101532.34;5052161;28;20227;-72
2021/09/16 02:27:56;;;;;;;97.23;59.43;;;;;;;17.35;100.00;101534.53;5046927;28;20499;-75
2021/09/16 02:30:21;;;;;;;101.90;67.90;;;;;;;17.29;100.00;101538.53;5052390;28;20212;-76
2021/09/16 02:32:47;;;;;;;130.00;78.17;;;;;;;17.25;100.00;101542.41;5038655;28;20166;-74
2021/09/16 02:35:12;;;;;;;135.70;80.47;;;;;;;17.23;100.00;101538.19;5028260;28;20166;-74
2021/09/16 02:37:39;;;;;;;144.07;83.73;;;;;;;17.20;100.00;101533.97;5022439;28;20621;-73
2021/09/16 02:40:07;;;;;;;154.93;93.97;;;;;;;17.21;100.00;101535.66;5051716;28;20161;-77
2021/09/16 02:42:32;;;;;;;140.10;89.73;;;;;;;17.25;100.00;101538.91;5041302;28;21019;-73
2021/09/16 02:44:58;;;;;;;128.70;85.10;;;;;;;17.22;100.00;101542.66;5045105;28;20499;-73
2021/09/16 02:47:24;;;;;;;125.17;80.20;;;;;;;17.30;100.00;101537.53;5032245;28;20166;-72
2021/09/16 02:49:49;;;;;;;142.40;86.20;;;;;;;17.25;100.00;101529.13;5032143;28;20436;-76
2021/09/16 02:52:15;;;;;;;147.60;91.47;;;;;;;17.31;100.00;101530.44;5034993;28;20273;-77
2021/09/16 02:54:40;;;;;;;124.73;79.77;;;;;;;17.30;100.00;101529.56;5040514;28;20252;-77
2021/09/16 02:57:06;;;;;;;132.90;80.20;;;;;;;17.20;100.00;101532.16;5051301;28;20166;-72
2021/09/16 02:59:31;;;;;;;113.07;75.90;;;;;;;17.24;100.00;101537.25;5045499;28;20316;-71
2021/09/16 03:01:57;;;;;;;102.93;68.20;;;;;;;17.22;100.00;101544.47;5049840;28;20243;-72
2021/09/16 03:04:22;;;;;;;122.20;68.33;;;;;;;17.16;100.00;101537.88;5024856;28;20661;-72
2021/09/16 03:06:48;;;;;;;107.07;64.40;;;;;;;17.09;100.00;101540.16;5022545;28;20158;-71
2021/09/16 03:09:13;;;;;;;115.40;74.70;;;;;;;17.07;100.00;101539.44;5030373;28;20180;-72
2021/09/16 03:11:39;;;;;;;106.73;67.37;;;;;;;17.09;100.00;101545.47;5040075;28;20176;-80
2021/09/16 03:14:05;;;;;;;97.63;56.20;;;;;;;17.09;100.00;101548.13;5043928;28;20627;-69
2021/09/16 03:16:31;;;;;;;72.73;46.10;;;;;;;17.08;100.00;101550.94;5051397;28;20686;-67
2021/09/16 03:18:56;;;;;;;76.63;45.80;;;;;;;17.04;100.00;101554.78;5044851;28;20416;-69
2021/09/16 03:21:22;;;;;;;82.27;46.90;;;;;;;16.98;100.00;101542.00;5049683;28;20173;-71
2021/09/16 03:23:47;;;;;;;98.80;56.27;;;;;;;16.99;100.00;101549.00;5041537;28;20220;-74
2021/09/16 03:26:13;;;;;;;101.20;57.93;;;;;;;16.98;100.00;101556.13;5035542;28;20166;-74
2021/09/16 03:28:40;;;;;;;93.50;56.90;;;;;;;17.00;100.00;101553.31;5033959;28;20746;-71
2021/09/16 03:31:07;;;;;;;85.77;55.80;;;;;;;17.10;100.00;101548.97;5034481;28;20158;-73
2021/09/16 03:33:33;;;;;;;82.93;54.17;;;;;;;17.15;100.00;101549.44;5031619;28;20447;-75
2021/09/16 03:35:59;;;;;;;86.50;45.97;;;;;;;17.18;100.00;101547.38;5030932;28;20451;-76
2021/09/16 03:38:24;;;;;;;76.30;47.13;;;;;;;17.15;100.00;101546.78;5030007;28;20639;-74
2021/09/16 03:40:50;;;;;;;72.40;45.23;;;;;;;17.15;100.00;101552.09;5019120;28;20421;-74
2021/09/16 03:43:15;;;;;;;71.67;46.00;;;;;;;17.11;100.00;101550.66;5021446;28;20197;-75
2021/09/16 03:45:41;;;;;;;69.20;43.90;;;;;;;17.09;100.00;101548.13;5049435;28;20242;-75
2021/09/16 03:48:07;;;;;;;65.37;42.67;;;;;;;17.09;100.00;101542.81;5050142;28;20173;-72
2021/09/16 03:50:34;;;;;;;65.37;43.37;;;;;;;17.13;100.00;101544.25;5041402;28;20166;-72
2021/09/16 03:53:00;;;;;;;69.47;42.07;;;;;;;17.06;100.00;101544.88;5030901;28;20625;-74
2021/09/16 03:55:25;;;;;;;58.63;40.30;;;;;;;17.10;100.00;101554.28;5030928;28;20476;-75
2021/09/16 03:57:51;;;;;;;59.73;37.67;;;;;;;17.12;100.00;101560.31;5030920;28;20220;-76
2021/09/16 04:00:16;;;;;;;64.50;42.50;;;;;;;17.12;100.00;101555.84;5032225;28;20169;-74
2021/09/16 04:02:42;;;;;;;65.17;40.63;;;;;;;17.17;100.00;101568.75;5041767;28;20323;-75
2021/09/16 04:05:08;;;;;;;61.27;40.17;;;;;;;17.17;100.00;101568.75;5029771;28;20238;-77
2021/09/16 04:07:33;;;;;;;52.63;31.93;;;;;;;17.27;100.00;101577.66;5029458;28;20220;-75
2021/09/16 04:09:59;;;;;;;52.77;35.57;;;;;;;17.30;100.00;101576.56;5042460;28;20949;-70
2021/09/16 04:12:24;;;;;;;56.90;34.83;;;;;;;17.34;100.00;101578.84;5029534;28;20174;-75
2021/09/16 04:14:50;;;;;;;48.30;31.57;;;;;;;17.38;100.00;101582.06;5029934;28;20158;-76
2021/09/16 04:17:16;;;;;;;57.53;38.73;;;;;;;17.41;100.00;101584.50;5027753;28;20169;-77
2021/09/16 04:19:41;;;;;;;61.13;36.20;;;;;;;17.48;100.00;101578.56;5030332;28;20482;-72
2021/09/16 04:22:07;;;;;;;58.13;39.80;;;;;;;17.52;100.00;101572.97;5029125;28;20193;-74
2021/09/16 04:24:32;;;;;;;68.00;42.43;;;;;;;17.53;100.00;101572.84;5030132;28;20583;-75
2021/09/16 04:26:57;;;;;;;58.80;35.23;;;;;;;17.66;100.00;101576.19;5019070;28;20178;-76
2021/09/16 04:29:23;;;;;;;50.93;34.50;;;;;;;17.62;100.00;101572.09;5011093;28;20249;-75
2021/09/16 04:31:49;;;;;;;46.33;31.20;;;;;;;17.68;100.00;101574.25;5010335;28;20162;-75
2021/09/16 04:34:14;;;;;;;41.03;27.57;;;;;;;17.76;100.00;101568.34;5010570;28;20173;-75
2021/09/16 04:36:40;;;;;;;43.97;28.90;;;;;;;17.86;100.00;101566.56;5010438;28;20174;-75
2021/09/16 04:39:06;;;;;;;39.90;27.07;;;;;;;17.98;100.00;101567.34;5010674;28;20173;-75
2021/09/16 04:41:32;;;;;;;36.77;26.77;;;;;;;18.12;100.00;101566.16;5018424;28;20174;-76
2021/09/16 04:43:58;;;;;;;43.70;27.13;;;;;;;18.21;100.00;101560.94;5029499;28;20172;-74
2021/09/16 04:46:24;;;;;;;40.83;29.10;;;;;;;18.40;100.00;101554.84;5029757;28;20392;-76
2021/09/16 04:48:49;;;;;;;44.23;28.20;;;;;;;18.58;100.00;101545.25;5030281;28;20890;-78
2021/09/16 04:51:15;;;;;;;42.07;28.10;;;;;;;18.57;100.00;101538.25;5030888;28;20658;-76
2021/09/16 04:53:41;;;;;;;37.80;26.90;;;;;;;18.82;100.00;101552.94;5029513;28;20540;-77
2021/09/16 04:56:06;;;;;;;38.73;25.87;;;;;;;18.92;100.00;101542.31;5030601;28;20482;-77
2021/09/16 04:58:32;;;;;;;41.63;25.90;;;;;;;18.99;100.00;101539.94;5033371;28;20248;-77
2021/09/16 05:00:57;;;;;;;31.27;24.17;;;;;;;19.13;100.00;101537.72;5050376;28;20239;-78
2021/09/16 05:03:23;;;;;;;43.23;26.63;;;;;;;19.25;100.00;101540.25;5030134;28;20197;-77
2021/09/16 05:05:48;;;;;;;45.83;25.20;;;;;;;19.19;100.00;101538.97;5029953;28;20162;-77
2021/09/16 05:08:15;;;;;;;38.20;24.90;;;;;;;19.29;100.00;101533.69;5029987;28;20224;-78
2021/09/16 05:10:42;;;;;;;34.00;24.40;;;;;;;19.51;100.00;101538.72;5035949;28;20213;-77
2021/09/16 05:13:07;;;;;;;37.93;25.37;;;;;;;19.66;100.00;101534.69;5048304;28;20489;-73
2021/09/16 05:15:33;;;;;;;44.73;27.17;;;;;;;19.76;100.00;101541.81;5049498;28;20388;-77
2021/09/16 05:17:59;;;;;;;44.50;25.80;;;;;;;19.72;100.00;101551.06;5014298;28;20520;-76
2021/09/16 05:20:25;;;;;;;40.17;24.93;;;;;;;19.93;100.00;101541.91;5018973;28;20648;-77
2021/09/16 05:22:50;;;;;;;34.20;24.50;;;;;;;19.93;100.00;101551.75;5033362;28;20201;-74
2021/09/16 05:25:16;;;;;;;45.13;24.40;;;;;;;19.90;100.00;101560.06;5033541;28;20161;-76
2021/09/16 05:27:42;;;;;;;35.80;26.63;;;;;;;19.90;100.00;101560.91;5033338;28;20196;-74
2021/09/16 05:30:08;;;;;;;41.77;28.13;;;;;;;19.97;100.00;101563.00;5033220;28;20217;-77
2021/09/16 05:32:33;;;;;;;40.80;28.10;;;;;;;19.93;100.00;101565.09;5033407;28;20899;-74
2021/09/16 05:35:00;;;;;;;48.63;32.60;;;;;;;20.01;100.00;101557.22;5027867;28;20233;-75
2021/09/16 05:37:26;;;;;;;38.83;29.00;;;;;;;19.98;100.00;101564.69;5013519;28;20158;-78
2021/09/16 05:39:52;;;;;;;45.53;29.60;;;;;;;20.12;100.00;101566.91;5020723;28;20420;-76
2021/09/16 05:42:17;;;;;;;46.20;27.07;;;;;;;19.98;100.00;101572.69;5033142;28;20189;-77
2021/09/16 05:44:43;;;;;;;41.40;28.70;;;;;;;20.11;100.00;101567.88;5033041;28;20396;-74
2021/09/16 05:47:08;;;;;;;53.33;30.97;;;;;;;20.13;100.00;101564.06;5033313;28;20219;-78
2021/09/16 05:49:34;;;;;;;39.73;27.27;;;;;;;20.04;100.00;101564.94;5031849;28;20170;-80
2021/09/16 05:51:59;;;;;;;40.30;27.10;;;;;;;19.95;100.00;101564.00;5033222;28;20180;-77
2021/09/16 05:54:25;;;;;;;50.73;25.67;;;;;;;19.93;100.00;101567.75;5031294;28;20636;-78
2021/09/16 05:56:50;;;;;;;39.20;25.00;;;;;;;19.91;100.00;101573.25;5033108;28;20154;-76
2021/09/16 05:59:16;;;;;;;41.47;26.27;;;;;;;19.84;100.00;101577.47;5023976;28;20221;-78
2021/09/16 06:01:42;;;;;;;40.07;27.20;;;;;;;19.84;100.00;101595.28;5012800;28;20186;-75
2021/09/16 06:04:07;;;;;;;47.00;28.20;;;;;;;19.85;100.00;101595.16;5012719;28;20476;-78
2021/09/16 06:06:33;;;;;;;43.13;28.73;;;;;;;19.83;100.00;101590.94;5015351;28;20537;-77
2021/09/16 06:08:58;;;;;;;40.83;29.00;;;;;;;19.85;100.00;101595.16;5026623;28;20552;-77
2021/09/16 06:11:25;;;;;;;47.00;31.73;;;;;;;20.05;100.00;101605.81;5031650;28;20178;-78
2021/09/16 06:13:51;;;;;;;41.87;28.97;;;;;;;20.17;100.00;101605.50;5033004;28;20162;-76
2021/09/16 06:16:17;;;;;;;38.77;27.93;;;;;;;20.23;100.00;101609.41;5032708;28;20396;-79
2021/09/16 06:18:42;;;;;;;52.70;30.07;;;;;;;20.24;100.00;101611.94;5032973;28;20466;-73
2021/09/16 06:21:08;;;;;;;40.73;25.97;;;;;;;20.34;100.00;101603.94;5033266;28;20162;-78
2021/09/16 06:23:33;;;;;;;37.20;25.43;;;;;;;20.53;100.00;101603.03;5031962;28;20193;-77
2021/09/16 06:25:59;;;;;;;30.00;22.33;;;;;;;20.70;100.00;101594.25;5030422;28;20178;-75
2021/09/16 06:28:24;;;;;;;36.93;23.60;;;;;;;20.97;100.00;101601.44;5029804;28;20213;-76
2021/09/16 06:30:50;;;;;;;48.63;23.27;;;;;;;21.23;100.00;101606.06;5031425;28;20223;-77
2021/09/16 06:33:15;;;;;;;26.87;20.70;;;;;;;21.50;100.00;101602.53;5016213;28;20174;-76
2021/09/16 06:35:41;;;;;;;32.63;19.50;;;;;;;21.74;100.00;101591.22;5012438;28;20321;-77
2021/09/16 06:38:06;;;;;;;27.57;19.43;;;;;;;21.87;100.00;101592.50;5011646;28;20171;-74
2021/09/16 06:40:32;;;;;;;28.60;16.57;;;;;;;22.19;100.00;101592.94;5012394;28;20162;-77
2021/09/16 06:42:58;;;;;;;25.80;18.20;;;;;;;22.50;100.00;101585.25;5012658;28;20245;-78
2021/09/16 06:45:23;;;;;;;22.47;13.63;;;;;;;22.74;100.00;101590.72;5031185;28;20428;-78
2021/09/16 06:47:49;;;;;;;21.17;14.40;;;;;;;23.15;100.00;101583.72;5026185;28;20640;-80
2021/09/16 06:50:15;;;;;;;20.00;14.03;;;;;;;23.38;100.00;101586.59;5012777;28;20166;-79
2021/09/16 06:52:41;;;;;;;15.37;10.10;;;;;;;23.49;100.00;101585.44;5012677;28;20526;-75
2021/09/16 06:55:07;;;;;;;17.70;9.67;;;;;;;23.56;100.00;101589.13;5019120;28;20422;-76
2021/09/16 06:57:32;;;;;;;15.63;8.60;;;;;;;23.37;100.00;101592.13;5022232;28;20249;-75
2021/09/16 06:59:58;;;;;;;15.20;10.70;;;;;;;23.47;100.00;101593.66;5030029;28;20644;-74
2021/09/16 07:02:25;;;;;;;18.03;11.43;;;;;;;23.46;100.00;101596.50;5031008;28;20189;-77
2021/09/16 07:04:51;;;;;;;19.60;12.37;;;;;;;23.71;100.00;101605.44;5031836;28;20150;-76
2021/09/16 07:07:17;;;;;;;25.03;12.83;;;;;;;23.62;100.00;101606.44;5031614;28;20389;-76
2021/09/16 07:09:43;;;;;;;25.77;14.43;;;;;;;23.45;100.00;101606.41;5031437;28;20428;-74
2021/09/16 07:12:09;;;;;;;21.97;13.13;;;;;;;23.52;100.00;101607.41;5031205;28;20431;-76
2021/09/16 07:14:37;;;;;;;18.67;12.13;;;;;;;23.69;100.00;101610.16;5031226;28;20689;-75
2021/09/16 07:17:03;;;;;;;16.87;12.07;;;;;;;23.76;100.00;101614.69;5031039;28;20629;-77
2021/09/16 07:19:29;;;;;;;19.50;13.17;;;;;;;23.88;100.00;101612.50;5031258;28;20415;-72
2021/09/16 07:21:55;;;;;;;19.50;10.70;;;;;;;23.99;100.00;101609.47;5030722;28;20158;-76
2021/09/16 07:24:21;;;;;;;20.17;12.50;;;;;;;23.88;100.00;101617.88;5030739;28;20158;-74
2021/09/16 07:26:50;;;;;;;21.10;13.53;;;;;;;24.01;100.00;101606.63;5030632;28;20420;-77
2021/09/16 07:29:23;;;;;;;14.30;11.53;;;;;;;24.08;100.00;101611.13;5030596;28;20456;-77
2021/09/16 07:31:51;;;;;;;14.90;10.30;;;;;;;24.26;100.00;101607.44;5030888;28;20901;-77
2021/09/16 07:34:18;;;;;;;26.67;10.97;;;;;;;24.46;100.00;101611.44;5030828;28;20412;-76
2021/09/16 07:36:44;;;;;;;18.73;8.40;;;;;;;24.42;100.00;101611.97;5030857;28;20389;-73
2021/09/16 07:39:14;;;;;;;15.67;9.73;;;;;;;24.55;100.00;101607.72;5030395;28;20423;-76
2021/09/16 07:41:40;;;;;;;14.17;9.40;;;;;;;24.64;100.00;101603.16;5030603;28;20517;-75
2021/09/16 07:44:06;;;;;;;15.03;8.70;;;;;;;24.72;100.00;101595.06;5030157;28;20408;-78
2021/09/16 07:46:31;;;;;;;17.37;9.30;;;;;;;24.75;100.00;101601.94;5030490;28;20397;-75
2021/09/16 07:48:57;;;;;;;17.20;8.53;;;;;;;24.75;100.00;101600.09;5033268;28;20676;-77
2021/09/16 07:51:23;;;;;;;16.10;10.70;;;;;;;24.69;100.00;101600.78;5032486;28;20244;-76
2021/09/16 07:53:49;;;;;;;14.40;10.27;;;;;;;24.63;100.00;101605.00;5033797;28;20409;-76
2021/09/16 07:56:14;;;;;;;16.00;10.73;;;;;;;24.38;100.00;101610.63;5048288;28;20169;-78
2021/09/16 07:58:42;;;;;;;19.30;11.70;;;;;;;24.23;100.00;101613.13;5026009;28;20162;-77
2021/09/16 08:01:08;;;;;;;16.47;10.67;;;;;;;24.22;100.00;101609.63;5012467;28;20625;-79
2021/09/16 08:03:33;;;;;;;14.60;10.20;;;;;;;24.14;100.00;101622.22;5012384;28;20479;-78
2021/09/16 08:05:59;;;;;;;17.60;10.57;;;;;;;24.17;100.00;101621.88;5031104;28;20173;-82
2021/09/16 08:08:24;;;;;;;14.20;11.10;;;;;;;24.31;100.00;101613.97;5030179;28;20629;-80
2021/09/16 08:10:50;;;;;;;16.97;9.23;;;;;;;24.38;100.00;101616.84;5030897;28;20157;-78
2021/09/16 08:13:15;;;;;;;18.43;11.10;;;;;;;24.38;100.00;101613.31;5024928;28;20605;-77
2021/09/16 08:15:41;;;;;;;19.17;11.93;;;;;;;24.46;100.00;101608.75;5034946;28;20264;-75
2021/09/16 08:18:07;;;;;;;20.33;9.67;;;;;;;24.54;100.00;101607.88;5030478;28;20185;-77
2021/09/16 08:20:38;;;;;;;13.67;10.20;;;;;;;24.54;100.00;101611.41;5031025;28;20470;-81
2021/09/16 08:23:04;;;;;;;12.60;9.13;;;;;;;24.55;100.00;101610.41;5028543;28;20212;-82
2021/09/16 08:25:30;;;;;;;17.40;10.60;;;;;;;24.51;100.00;101605.56;5027601;28;20416;-80
2021/09/16 08:27:56;;;;;;;24.57;10.77;;;;;;;24.33;100.00;101606.63;5025620;28;20197;-78
2021/09/16 08:30:21;;;;;;;19.70;9.90;;;;;;;24.50;100.00;101606.56;5018207;28;20886;-72
2021/09/16 08:32:48;;;;;;;17.13;10.70;;;;;;;24.62;100.00;101610.56;5030396;28;20181;-82
2021/09/16 08:35:15;;;;;;;15.23;9.77;;;;;;;24.96;100.00;101606.75;5011551;28;20254;-80
2021/09/16 08:37:40;;;;;;;20.43;9.80;;;;;;;25.27;100.00;101609.44;5012378;28;20415;-80
2021/09/16 08:40:07;;;;;;;18.20;10.60;;;;;;;25.23;100.00;101603.56;5014822;28;20497;-78
2021/09/16 08:42:38;;;;;;;23.43;11.17;;;;;;;25.37;100.00;101604.66;5029589;28;20216;-84
2021/09/16 08:45:04;;;;;;;14.50;11.13;;;;;;;25.31;100.00;101606.22;5031485;28;20405;-83
2021/09/16 08:47:30;;;;;;;15.30;11.57;;;;;;;25.33;100.00;101596.13;5025191;28;20421;-78
2021/09/16 08:49:56;;;;;;;17.27;10.73;;;;;;;25.04;100.00;101598.66;5023886;28;20785;-86
2021/09/16 08:52:22;;;;;;;15.30;9.90;;;;;;;24.81;100.00;101594.03;5020452;28;20277;-77
2021/09/16 08:54:49;;;;;;;18.93;10.03;;;;;;;24.71;100.00;101603.28;5029352;28;20181;-84
2021/09/16 08:57:16;;;;;;;13.07;9.03;;;;;;;24.96;100.00;101596.81;5036461;28;20401;-84
2021/09/16 08:59:44;;;;;;;13.30;8.97;;;;;;;25.01;100.00;101588.19;5028502;28;20802;-83
2021/09/16 09:02:11;;;;;;;14.63;11.00;;;;;;;25.08;100.00;101594.59;5029442;28;20554;-83
2021/09/16 09:04:38;;;;;;;14.97;10.83;;;;;;;25.05;100.00;101587.72;5034187;28;20408;-79
2021/09/16 09:07:05;;;;;;;13.63;8.53;;;;;;;25.11;100.00;101595.09;5025154;28;20411;-83
2021/09/16 09:09:32;;;;;;;15.00;8.10;;;;;;;25.15;100.00;101585.63;5027102;28;20418;-80
2021/09/16 09:12:16;;;;;;;12.90;9.33;;;;;;;25.09;100.00;101588.19;5030229;28;20795;-85
2021/09/16 09:14:45;;;;;;;11.30;8.57;;;;;;;25.18;100.00;101590.69;5033735;28;20868;-76
2021/09/16 09:17:20;;;;;;;13.10;9.33;;;;;;;25.22;100.00;101584.94;5034591;28;20392;-83
2021/09/16 09:19:47;;;;;;;15.13;9.20;;;;;;;25.32;100.00;101585.56;5034471;28;20482;-81
2021/09/16 09:22:13;;;;;;;12.70;9.20;;;;;;;25.33;100.00;101577.28;5033948;28;20443;-85
2021/09/16 09:24:41;;;;;;;18.37;9.53;;;;;;;25.35;100.00;101577.94;5034629;28;20780;-83
2021/09/16 09:27:28;;;;;;;16.63;9.60;;;;;;;25.40;100.00;101577.41;5034646;28;20905;-83
2021/09/16 09:30:09;;;;;;;17.03;9.53;;;;;;;25.42;100.00;101572.69;5033278;28;20986;-85
2021/09/16 09:33:00;;;;;;;13.50;10.03;;;;;;;25.38;100.00;101569.50;5035002;28;20470;-84
2021/09/16 09:35:26;;;;;;;14.37;9.43;;;;;;;25.48;100.00;101573.84;5034509;28;20408;-81
2021/09/16 09:37:51;;;;;;;16.37;9.97;;;;;;;25.48;100.00;101569.28;5033910;28;20408;-82
2021/09/16 09:40:28;;;;;;;12.57;9.40;;;;;;;25.70;100.00;101563.03;5034697;28;20161;-82
2021/09/16 09:42:54;;;;;;;17.20;9.50;;;;;;;25.76;100.00;101572.25;5035094;28;20216;-82
2021/09/16 09:45:19;;;;;;;16.67;9.70;;;;;;;26.03;100.00;101568.16;5034546;28;20764;-81
2021/09/16 09:47:48;;;;;;;16.07;9.70;;;;;;;26.12;100.00;101569.75;5032308;28;20500;-84
2021/09/16 09:50:23;;;;;;;14.50;9.17;;;;;;;26.00;100.00;101572.06;5033205;28;20185;-81
2021/09/16 09:52:50;;;;;;;15.53;9.40;;;;;;;26.19;100.00;101567.16;5034731;28;20404;-81
2021/09/16 09:55:18;;;;;;;13.90;10.00;;;;;;;26.00;100.00;101558.59;5035488;28;20409;-85
2021/09/16 09:57:46;;;;;;;14.90;8.43;;;;;;;25.81;100.00;101563.66;5035096;28;20412;-83
2021/09/16 10:00:14;;;;;;;14.50;8.53;;;;;;;25.99;100.00;101556.91;5034684;28;20490;-81
2021/09/16 10:02:59;;;;;;;10.37;8.10;;;;;;;25.99;100.00;101562.28;5034451;28;20609;-78
2021/09/16 10:05:32;;;;;;;14.37;9.53;;;;;;;25.89;100.00;101560.88;5034133;28;20401;-84
2021/09/16 10:08:11;;;;;;;13.40;7.30;;;;;;;26.19;100.00;101559.91;5033275;28;21018;-80
2021/09/16 10:10:50;;;;;;;14.43;8.83;;;;;;;26.23;100.00;101560.38;5033986;28;20416;-85
2021/09/16 10:13:18;;;;;;;12.00;8.20;;;;;;;26.27;100.00;101553.59;5035048;28;20791;-82
2021/09/16 10:15:49;;;;;;;25.67;21.83;;;;;;;26.42;100.00;101553.63;5035482;28;20746;-82
2021/09/16 10:18:15;;;;;;;11.60;7.83;;;;;;;26.43;100.00;101552.59;5035090;28;20886;-83
2021/09/16 10:20:41;;;;;;;13.00;8.53;;;;;;;26.70;100.00;101548.41;5033102;28;20522;-82
2021/09/16 10:23:08;;;;;;;16.13;8.70;;;;;;;26.86;100.00;101552.72;5033964;28;20189;-82
2021/09/16 10:25:43;;;;;;;13.40;8.43;;;;;;;26.87;100.00;101544.44;5035034;28;20166;-82
2021/09/16 10:28:09;;;;;;;14.33;8.07;;;;;;;27.06;100.00;101546.56;5035420;28;20424;-82
2021/09/16 10:30:45;;;;;;;12.27;7.93;;;;;;;27.08;100.00;101549.06;5034437;28;20514;-78
2021/09/16 10:33:27;;;;;;;11.67;7.20;;;;;;;27.12;100.00;101536.84;5034899;28;20222;-83
2021/09/16 10:35:59;;;;;;;13.63;8.20;;;;;;;27.10;100.00;101537.06;5033511;28;20464;-82
2021/09/16 10:38:29;;;;;;;11.27;7.40;;;;;;;27.11;100.00;101532.50;5034403;28;20400;-81
2021/09/16 10:41:17;;;;;;;13.33;8.00;;;;;;;27.11;100.00;101535.19;5034168;28;20450;-80
2021/09/16 10:44:03;;;;;;;10.23;8.00;;;;;;;27.14;100.00;101534.81;5033868;28;20471;-81
2021/09/16 10:46:38;;;;;;;9.00;6.10;;;;;;;27.15;100.00;101528.38;5034710;28;20417;-82
2021/09/16 10:49:22;;;;;;;10.00;5.50;;;;;;;27.33;100.00;101520.66;5033908;28;20404;-80
2021/09/16 10:51:53;;;;;;;10.60;5.80;;;;;;;27.61;100.00;101525.28;5034543;28;20851;-79
2021/09/16 10:54:26;;;;;;;12.50;5.47;;;;;;;28.64;100.00;101513.72;5033200;28;20425;-83
2021/09/16 10:57:07;;;;;;;12.20;5.77;;;;;;;30.42;100.00;101516.69;5033695;28;20417;-82
2021/09/16 10:59:50;;;;;;;8.07;5.63;;;;;;;31.68;100.00;101514.91;5032419;28;20439;-80
2021/09/16 11:02:17;;;;;;;8.87;5.60;;;;;;;32.27;100.00;101494.44;5032867;28;20448;-81